sensor_id;sensor_type;location;lat;lon;timestamp;temperature;humidity
13496;DHT22;6820;49.374;8.452;2022-10-16T00:00:12;17.30;99.99
13496;DHT22;6820;49.374;8.452;2022-10-16T00:04:14;17.30;99.99
13496;DHT22;6820;49.374;8.452;2022-10-16T00:08:16;17.30;99.99
13496;DHT22;6820;49.374;8.452;2022-10-16T00:12:17;17.30;99.99
13496;DHT22;6820;49.374;8.452;2022-10-16T00:16:19;17.28;99.99
13496;DHT22;6820;49.374;8.452;2022-10-16T00:20:21;17.28;99.99
13496;DHT22;6820;49.374;8.452;2022-10-16T00:24:22;17.27;99.99
13496;DHT22;6820;49.374;8.452;2022-10-16T00:28:24;17.25;99.99
13496;DHT22;6820;49.374;8.452;2022-10-16T00:32:27;17.25;99.99
13496;DHT22;6820;49.374;8.452;2022-10-16T00:36:29;17.27;99.99
13496;DHT22;6820;49.374;8.452;2022-10-16T00:40:31;17.24;99.99
13496;DHT22;6820;49.374;8.452;2022-10-16T00:45:07;17.24;99.99
13496;DHT22;6820;49.374;8.452;2022-10-16T00:49:02;17.25;99.99
13496;DHT22;6820;49.374;8.452;2022-10-16T00:53:06;17.25;99.99
13496;DHT22;6820;49.374;8.452;2022-10-16T00:57:08;17.24;99.99
13496;DHT22;6820;49.374;8.452;2022-10-16T01:01:10;17.25;99.99
13496;DHT22;6820;49.374;8.452;2022-10-16T01:05:12;17.22;99.99
13496;DHT22;6820;49.374;8.452;2022-10-16T01:09:17;17.21;99.99
13496;DHT22;6820;49.374;8.452;2022-10-16T01:13:40;17.21;99.99
13496;DHT22;6820;49.374;8.452;2022-10-16T01:17:48;17.20;99.99
13496;DHT22;6820;49.374;8.452;2022-10-16T01:21:54;17.21;99.99
13496;DHT22;6820;49.374;8.452;2022-10-16T01:30:45;17.24;99.99
13496;DHT22;6820;49.374;8.452;2022-10-16T01:34:52;17.22;99.99
13496;DHT22;6820;49.374;8.452;2022-10-16T01:39:01;17.20;99.99
13496;DHT22;6820;49.374;8.452;2022-10-16T01:43:07;17.18;99.99
13496;DHT22;6820;49.374;8.452;2022-10-16T01:47:13;17.17;99.99
13496;DHT22;6820;49.374;8.452;2022-10-16T01:51:17;17.21;99.99
13496;DHT22;6820;49.374;8.452;2022-10-16T01:55:24;17.18;99.99
13496;DHT22;6820;49.374;8.452;2022-10-16T01:59:31;17.22;99.99
13496;DHT22;6820;49.374;8.452;2022-10-16T02:03:37;17.22;99.99
13496;DHT22;6820;49.374;8.452;2022-10-16T02:07:41;17.22;99.99
13496;DHT22;6820;49.374;8.452;2022-10-16T02:11:43;17.21;99.99
13496;DHT22;6820;49.374;8.452;2022-10-16T02:15:46;17.21;99.99
13496;DHT22;6820;49.374;8.452;2022-10-16T02:19:48;17.21;99.99
13496;DHT22;6820;49.374;8.452;2022-10-16T02:28:15;17.18;99.99
13496;DHT22;6820;49.374;8.452;2022-10-16T02:32:20;17.15;99.99
13496;DHT22;6820;49.374;8.452;2022-10-16T02:36:26;17.14;99.99
13496;DHT22;6820;49.374;8.452;2022-10-16T02:40:28;17.10;99.99
13496;DHT22;6820;49.374;8.452;2022-10-16T02:44:30;17.09;99.99
13496;DHT22;6820;49.374;8.452;2022-10-16T02:48:31;17.05;99.99
13496;DHT22;6820;49.374;8.452;2022-10-16T02:52:33;16.98;99.99
13496;DHT22;6820;49.374;8.452;2022-10-16T02:56:35;16.99;99.99
13496;DHT22;6820;49.374;8.452;2022-10-16T03:00:37;16.99;99.99
13496;DHT22;6820;49.374;8.452;2022-10-16T03:04:38;17.02;99.99
13496;DHT22;6820;49.374;8.452;2022-10-16T03:08:40;17.02;99.99
13496;DHT22;6820;49.374;8.452;2022-10-16T03:12:41;16.99;99.99
13496;DHT22;6820;49.374;8.452;2022-10-16T03:16:43;16.96;99.99
13496;DHT22;6820;49.374;8.452;2022-10-16T03:20:44;16.95;99.99
13496;DHT22;6820;49.374;8.452;2022-10-16T03:24:46;16.91;99.99
13496;DHT22;6820;49.374;8.452;2022-10-16T03:28:47;16.90;99.99
13496;DHT22;6820;49.374;8.452;2022-10-16T03:32:49;16.88;99.99
13496;DHT22;6820;49.374;8.452;2022-10-16T03:36:55;16.88;99.99
13496;DHT22;6820;49.374;8.452;2022-10-16T03:40:56;16.88;99.99
13496;DHT22;6820;49.374;8.452;2022-10-16T03:44:58;16.88;99.99
13496;DHT22;6820;49.374;8.452;2022-10-16T03:48:59;16.90;99.99
13496;DHT22;6820;49.374;8.452;2022-10-16T03:53:05;16.88;99.99
13496;DHT22;6820;49.374;8.452;2022-10-16T03:57:06;16.88;99.99
13496;DHT22;6820;49.374;8.452;2022-10-16T04:01:08;16.87;99.99
13496;DHT22;6820;49.374;8.452;2022-10-16T04:05:10;16.85;99.99
13496;DHT22;6820;49.374;8.452;2022-10-16T04:09:11;16.88;99.99
13496;DHT22;6820;49.374;8.452;2022-10-16T04:13:13;16.88;99.99
13496;DHT22;6820;49.374;8.452;2022-10-16T04:17:15;16.90;99.99
13496;DHT22;6820;49.374;8.452;2022-10-16T04:21:16;16.90;99.99
13496;DHT22;6820;49.374;8.452;2022-10-16T04:25:18;16.87;99.99
13496;DHT22;6820;49.374;8.452;2022-10-16T04:29:19;16.88;99.99
13496;DHT22;6820;49.374;8.452;2022-10-16T04:33:21;16.87;99.99
13496;DHT22;6820;49.374;8.452;2022-10-16T04:37:23;16.88;99.99
13496;DHT22;6820;49.374;8.452;2022-10-16T04:41:26;16.87;99.99
13496;DHT22;6820;49.374;8.452;2022-10-16T04:45:28;16.85;99.99
13496;DHT22;6820;49.374;8.452;2022-10-16T04:49:30;16.84;99.99
13496;DHT22;6820;49.374;8.452;2022-10-16T04:53:31;16.81;99.99
13496;DHT22;6820;49.374;8.452;2022-10-16T04:57:34;16.77;99.99
13496;DHT22;6820;49.374;8.452;2022-10-16T05:01:36;16.72;99.99
13496;DHT22;6820;49.374;8.452;2022-10-16T05:05:41;16.72;99.99
13496;DHT22;6820;49.374;8.452;2022-10-16T05:09:44;16.73;99.99
13496;DHT22;6820;49.374;8.452;2022-10-16T05:13:45;16.73;99.99
13496;DHT22;6820;49.374;8.452;2022-10-16T05:17:52;16.70;99.99
13496;DHT22;6820;49.374;8.452;2022-10-16T05:21:57;16.70;99.99
13496;DHT22;6820;49.374;8.452;2022-10-16T05:25:58;16.70;99.99
13496;DHT22;6820;49.374;8.452;2022-10-16T05:30:00;16.67;99.99
13496;DHT22;6820;49.374;8.452;2022-10-16T05:34:02;16.69;99.99
13496;DHT22;6820;49.374;8.452;2022-10-16T05:38:03;16.69;99.99
13496;DHT22;6820;49.374;8.452;2022-10-16T05:42:05;16.69;99.99
13496;DHT22;6820;49.374;8.452;2022-10-16T05:46:07;16.67;99.99
13496;DHT22;6820;49.374;8.452;2022-10-16T05:50:09;16.72;99.99
13496;DHT22;6820;49.374;8.452;2022-10-16T05:54:10;16.75;99.99
13496;DHT22;6820;49.374;8.452;2022-10-16T05:58:12;16.77;99.99
13496;DHT22;6820;49.374;8.452;2022-10-16T06:02:13;16.75;99.99
13496;DHT22;6820;49.374;8.452;2022-10-16T06:06:19;16.75;99.99
13496;DHT22;6820;49.374;8.452;2022-10-16T06:10:23;16.72;99.99
13496;DHT22;6820;49.374;8.452;2022-10-16T06:14:24;16.73;99.99
13496;DHT22;6820;49.374;8.452;2022-10-16T06:18:26;16.75;99.99
13496;DHT22;6820;49.374;8.452;2022-10-16T06:22:29;16.77;99.99
13496;DHT22;6820;49.374;8.452;2022-10-16T06:26:31;16.81;99.99
13496;DHT22;6820;49.374;8.452;2022-10-16T06:30:33;16.85;99.99
13496;DHT22;6820;49.374;8.452;2022-10-16T06:34:34;16.87;99.99
13496;DHT22;6820;49.374;8.452;2022-10-16T06:38:37;16.87;99.99
13496;DHT22;6820;49.374;8.452;2022-10-16T06:42:39;16.88;99.99
13496;DHT22;6820;49.374;8.452;2022-10-16T06:46:41;16.88;99.99
13496;DHT22;6820;49.374;8.452;2022-10-16T06:50:43;16.95;99.99
13496;DHT22;6820;49.374;8.452;2022-10-16T06:54:45;16.98;99.99
13496;DHT22;6820;49.374;8.452;2022-10-16T06:58:46;17.02;99.99
13496;DHT22;6820;49.374;8.452;2022-10-16T07:02:49;17.05;99.99
13496;DHT22;6820;49.374;8.452;2022-10-16T07:06:51;17.09;99.99
13496;DHT22;6820;49.374;8.452;2022-10-16T07:11:06;17.15;99.99
13496;DHT22;6820;49.374;8.452;2022-10-16T07:15:09;17.21;99.99
13496;DHT22;6820;49.374;8.452;2022-10-16T07:19:11;17.27;99.99
13496;DHT22;6820;49.374;8.452;2022-10-16T07:23:15;17.36;99.99
13496;DHT22;6820;49.374;8.452;2022-10-16T07:27:17;17.43;99.99
13496;DHT22;6820;49.374;8.452;2022-10-16T07:31:19;17.49;99.99
13496;DHT22;6820;49.374;8.452;2022-10-16T07:35:21;17.53;99.99
13496;DHT22;6820;49.374;8.452;2022-10-16T07:39:23;17.55;99.99
13496;DHT22;6820;49.374;8.452;2022-10-16T07:43:25;17.58;99.99
13496;DHT22;6820;49.374;8.452;2022-10-16T07:47:27;17.66;99.99
13496;DHT22;6820;49.374;8.452;2022-10-16T07:51:30;17.74;99.99
13496;DHT22;6820;49.374;8.452;2022-10-16T07:55:32;17.80;99.99
13496;DHT22;6820;49.374;8.452;2022-10-16T07:59:33;17.84;99.99
13496;DHT22;6820;49.374;8.452;2022-10-16T08:03:35;17.86;99.99
13496;DHT22;6820;49.374;8.452;2022-10-16T08:07:37;17.86;99.99
13496;DHT22;6820;49.374;8.452;2022-10-16T08:11:39;17.80;99.99
13496;DHT22;6820;49.374;8.452;2022-10-16T08:15:44;17.81;99.99
13496;DHT22;6820;49.374;8.452;2022-10-16T08:19:46;17.79;99.99
13496;DHT22;6820;49.374;8.452;2022-10-16T08:23:49;17.80;99.99
13496;DHT22;6820;49.374;8.452;2022-10-16T08:27:57;17.86;99.99
13496;DHT22;6820;49.374;8.452;2022-10-16T08:31:58;17.99;99.99
13496;DHT22;6820;49.374;8.452;2022-10-16T08:36:00;18.14;99.99
13496;DHT22;6820;49.374;8.452;2022-10-16T08:40:03;18.29;99.99
13496;DHT22;6820;49.374;8.452;2022-10-16T08:44:17;18.38;99.99
13496;DHT22;6820;49.374;8.452;2022-10-16T08:48:45;18.44;99.99
13496;DHT22;6820;49.374;8.452;2022-10-16T08:52:48;18.56;99.99
13496;DHT22;6820;49.374;8.452;2022-10-16T08:56:50;18.65;99.99
13496;DHT22;6820;49.374;8.452;2022-10-16T09:00:55;18.76;99.99
13496;DHT22;6820;49.374;8.452;2022-10-16T09:05:03;18.76;99.99
13496;DHT22;6820;49.374;8.452;2022-10-16T09:13:36;19.07;99.99
13496;DHT22;6820;49.374;8.452;2022-10-16T09:21:51;19.35;99.99
13496;DHT22;6820;49.374;8.452;2022-10-16T09:25:54;19.49;99.99
13496;DHT22;6820;49.374;8.452;2022-10-16T09:29:58;19.50;99.99
13496;DHT22;6820;49.374;8.452;2022-10-16T09:34:00;19.53;99.99
13496;DHT22;6820;49.374;8.452;2022-10-16T09:38:08;19.61;99.99
13496;DHT22;6820;49.374;8.452;2022-10-16T09:42:10;19.68;99.99
13496;DHT22;6820;49.374;8.452;2022-10-16T09:50:28;19.71;99.99
13496;DHT22;6820;49.374;8.452;2022-10-16T09:54:30;19.68;99.99
13496;DHT22;6820;49.374;8.452;2022-10-16T09:58:31;19.67;99.99
13496;DHT22;6820;49.374;8.452;2022-10-16T10:02:35;19.64;99.99
13496;DHT22;6820;49.374;8.452;2022-10-16T10:10:51;19.50;99.99
13496;DHT22;6820;49.374;8.452;2022-10-16T10:14:57;19.43;99.99
13496;DHT22;6820;49.374;8.452;2022-10-16T10:19:00;19.35;99.99
13496;DHT22;6820;49.374;8.452;2022-10-16T10:23:15;19.40;99.99
13496;DHT22;6820;49.374;8.452;2022-10-16T10:27:32;19.50;99.99
13496;DHT22;6820;49.374;8.452;2022-10-16T10:31:48;19.71;99.99
13496;DHT22;6820;49.374;8.452;2022-10-16T10:40:34;20.26;99.99
13496;DHT22;6820;49.374;8.452;2022-10-16T10:50:16;20.30;99.99
13496;DHT22;6820;49.374;8.452;2022-10-16T11:02:48;20.31;99.99
13496;DHT22;6820;49.374;8.452;2022-10-16T11:07:09;20.35;99.99
13496;DHT22;6820;49.374;8.452;2022-10-16T11:15:53;20.34;99.99
13496;DHT22;6820;49.374;8.452;2022-10-16T11:20:05;20.34;99.99
13496;DHT22;6820;49.374;8.452;2022-10-16T11:24:18;20.31;99.99
13496;DHT22;6820;49.374;8.452;2022-10-16T11:28:42;20.33;99.99
13496;DHT22;6820;49.374;8.452;2022-10-16T11:32:56;20.41;99.99
13496;DHT22;6820;49.374;8.452;2022-10-16T11:37:09;20.54;99.99
13496;DHT22;6820;49.374;8.452;2022-10-16T11:41:29;20.57;99.99
13496;DHT22;6820;49.374;8.452;2022-10-16T11:45:39;20.61;99.99
13496;DHT22;6820;49.374;8.452;2022-10-16T11:49:42;20.76;99.99
13496;DHT22;6820;49.374;8.452;2022-10-16T11:54:04;20.93;99.99
13496;DHT22;6820;49.374;8.452;2022-10-16T11:58:31;21.12;99.99
13496;DHT22;6820;49.374;8.452;2022-10-16T12:02:46;21.19;99.99
13496;DHT22;6820;49.374;8.452;2022-10-16T12:07:03;21.21;99.99
13496;DHT22;6820;49.374;8.452;2022-10-16T12:15:28;21.30;99.99
13496;DHT22;6820;49.374;8.452;2022-10-16T12:20:18;21.38;99.99
13496;DHT22;6820;49.374;8.452;2022-10-16T12:24:33;21.45;99.99
13496;DHT22;6820;49.374;8.452;2022-10-16T12:28:39;21.45;99.99
13496;DHT22;6820;49.374;8.452;2022-10-16T12:32:42;21.46;99.99
13496;DHT22;6820;49.374;8.452;2022-10-16T12:36:48;21.40;99.99
13496;DHT22;6820;49.374;8.452;2022-10-16T12:40:55;21.37;99.99
13496;DHT22;6820;49.374;8.452;2022-10-16T12:45:00;21.40;99.99
13496;DHT22;6820;49.374;8.452;2022-10-16T12:53:23;21.61;99.99
13496;DHT22;6820;49.374;8.452;2022-10-16T13:01:52;21.71;99.99
13496;DHT22;6820;49.374;8.452;2022-10-16T13:19:08;21.21;99.99
13496;DHT22;6820;49.374;8.452;2022-10-16T13:23:13;21.08;99.99
13496;DHT22;6820;49.374;8.452;2022-10-16T13:27:41;21.03;99.99
13496;DHT22;6820;49.374;8.452;2022-10-16T13:31:51;20.98;99.99
13496;DHT22;6820;49.374;8.452;2022-10-16T13:35:56;20.91;99.99
13496;DHT22;6820;49.374;8.452;2022-10-16T13:40:12;20.87;99.99
13496;DHT22;6820;49.374;8.452;2022-10-16T13:44:21;20.83;99.99
13496;DHT22;6820;49.374;8.452;2022-10-16T13:48:22;20.85;99.99
13496;DHT22;6820;49.374;8.452;2022-10-16T13:52:24;20.90;99.99
13496;DHT22;6820;49.374;8.452;2022-10-16T13:56:31;20.87;99.99
13496;DHT22;6820;49.374;8.452;2022-10-16T14:00:34;20.81;99.99
13496;DHT22;6820;49.374;8.452;2022-10-16T14:04:37;20.72;99.99
13496;DHT22;6820;49.374;8.452;2022-10-16T14:08:41;20.68;99.99
13496;DHT22;6820;49.374;8.452;2022-10-16T14:12:44;20.58;99.99
13496;DHT22;6820;49.374;8.452;2022-10-16T14:16:46;20.54;99.99
13496;DHT22;6820;49.374;8.452;2022-10-16T14:20:49;20.44;99.99
13496;DHT22;6820;49.374;8.452;2022-10-16T14:24:51;20.40;99.99
13496;DHT22;6820;49.374;8.452;2022-10-16T14:29:13;20.35;99.99
13496;DHT22;6820;49.374;8.452;2022-10-16T14:37:30;20.27;99.99
13496;DHT22;6820;49.374;8.452;2022-10-16T14:41:33;20.30;99.99
13496;DHT22;6820;49.374;8.452;2022-10-16T14:45:49;20.33;99.99
13496;DHT22;6820;49.374;8.452;2022-10-16T14:49:53;20.41;99.99
13496;DHT22;6820;49.374;8.452;2022-10-16T14:54:00;20.53;99.99
13496;DHT22;6820;49.374;8.452;2022-10-16T14:58:03;20.63;99.99
13496;DHT22;6820;49.374;8.452;2022-10-16T15:06:29;20.87;99.99
13496;DHT22;6820;49.374;8.452;2022-10-16T15:10:31;20.93;99.99
13496;DHT22;6820;49.374;8.452;2022-10-16T15:14:39;20.90;99.99
13496;DHT22;6820;49.374;8.452;2022-10-16T15:18:41;20.82;99.99
13496;DHT22;6820;49.374;8.452;2022-10-16T15:22:42;20.76;99.99
13496;DHT22;6820;49.374;8.452;2022-10-16T15:26:44;20.68;99.99
13496;DHT22;6820;49.374;8.452;2022-10-16T15:30:49;20.61;99.99
13496;DHT22;6820;49.374;8.452;2022-10-16T15:34:51;20.57;99.99
13496;DHT22;6820;49.374;8.452;2022-10-16T15:38:53;20.53;99.99
13496;DHT22;6820;49.374;8.452;2022-10-16T15:42:55;20.51;99.99
13496;DHT22;6820;49.374;8.452;2022-10-16T15:46:56;20.48;99.99
13496;DHT22;6820;49.374;8.452;2022-10-16T15:50:58;20.46;99.99
13496;DHT22;6820;49.374;8.452;2022-10-16T15:55:00;20.42;99.99
13496;DHT22;6820;49.374;8.452;2022-10-16T15:59:02;20.37;99.99
13496;DHT22;6820;49.374;8.452;2022-10-16T16:03:05;20.27;99.99
13496;DHT22;6820;49.374;8.452;2022-10-16T16:07:07;20.19;99.99
13496;DHT22;6820;49.374;8.452;2022-10-16T16:11:10;20.10;99.99
13496;DHT22;6820;49.374;8.452;2022-10-16T16:15:12;19.98;99.99
13496;DHT22;6820;49.374;8.452;2022-10-16T16:19:14;19.89;99.99
13496;DHT22;6820;49.374;8.452;2022-10-16T16:23:17;19.80;99.99
13496;DHT22;6820;49.374;8.452;2022-10-16T16:27:20;19.70;99.99
13496;DHT22;6820;49.374;8.452;2022-10-16T16:31:25;19.62;99.99
13496;DHT22;6820;49.374;8.452;2022-10-16T16:35:29;19.55;99.99
13496;DHT22;6820;49.374;8.452;2022-10-16T16:39:30;19.47;99.99
13496;DHT22;6820;49.374;8.452;2022-10-16T16:43:32;19.43;99.99
13496;DHT22;6820;49.374;8.452;2022-10-16T16:47:34;19.38;99.99
13496;DHT22;6820;49.374;8.452;2022-10-16T16:51:35;19.30;99.99
13496;DHT22;6820;49.374;8.452;2022-10-16T16:55:40;19.24;99.99
13496;DHT22;6820;49.374;8.452;2022-10-16T16:59:42;19.15;99.99
13496;DHT22;6820;49.374;8.452;2022-10-16T17:03:44;19.07;99.99
13496;DHT22;6820;49.374;8.452;2022-10-16T17:07:46;19.06;99.99
13496;DHT22;6820;49.374;8.452;2022-10-16T17:11:47;18.99;99.99
13496;DHT22;6820;49.374;8.452;2022-10-16T17:15:50;18.94;99.99
13496;DHT22;6820;49.374;8.452;2022-10-16T17:19:52;18.90;99.99
13496;DHT22;6820;49.374;8.452;2022-10-16T17:23:54;18.86;99.99
13496;DHT22;6820;49.374;8.452;2022-10-16T17:27:55;18.79;99.99
13496;DHT22;6820;49.374;8.452;2022-10-16T17:31:57;18.76;99.99
13496;DHT22;6820;49.374;8.452;2022-10-16T17:35:59;18.71;99.99
13496;DHT22;6820;49.374;8.452;2022-10-16T17:40:01;18.66;99.99
13496;DHT22;6820;49.374;8.452;2022-10-16T17:44:03;18.62;99.99
13496;DHT22;6820;49.374;8.452;2022-10-16T17:48:06;18.56;99.99
13496;DHT22;6820;49.374;8.452;2022-10-16T17:52:08;18.53;99.99
13496;DHT22;6820;49.374;8.452;2022-10-16T17:56:11;18.47;99.99
13496;DHT22;6820;49.374;8.452;2022-10-16T18:00:14;18.46;99.99
13496;DHT22;6820;49.374;8.452;2022-10-16T18:04:16;18.39;99.99
13496;DHT22;6820;49.374;8.452;2022-10-16T18:08:18;18.38;99.99
13496;DHT22;6820;49.374;8.452;2022-10-16T18:12:23;18.32;99.99
13496;DHT22;6820;49.374;8.452;2022-10-16T18:16:27;18.29;99.99
13496;DHT22;6820;49.374;8.452;2022-10-16T18:20:30;18.25;99.99
13496;DHT22;6820;49.374;8.452;2022-10-16T18:24:31;18.23;99.99
13496;DHT22;6820;49.374;8.452;2022-10-16T18:28:33;18.20;99.99
13496;DHT22;6820;49.374;8.452;2022-10-16T18:32:35;18.16;99.99
13496;DHT22;6820;49.374;8.452;2022-10-16T18:36:36;18.10;99.99
13496;DHT22;6820;49.374;8.452;2022-10-16T18:40:39;18.09;99.99
13496;DHT22;6820;49.374;8.452;2022-10-16T18:44:41;18.07;99.99
13496;DHT22;6820;49.374;8.452;2022-10-16T18:48:43;18.04;99.99
13496;DHT22;6820;49.374;8.452;2022-10-16T18:52:47;17.99;99.99
13496;DHT22;6820;49.374;8.452;2022-10-16T18:56:50;17.98;99.99
13496;DHT22;6820;49.374;8.452;2022-10-16T19:00:53;17.94;99.99
13496;DHT22;6820;49.374;8.452;2022-10-16T19:04:55;17.89;99.99
13496;DHT22;6820;49.374;8.452;2022-10-16T19:08:56;17.86;99.99
13496;DHT22;6820;49.374;8.452;2022-10-16T19:12:58;17.84;99.99
13496;DHT22;6820;49.374;8.452;2022-10-16T19:16:59;17.79;99.99
13496;DHT22;6820;49.374;8.452;2022-10-16T19:21:02;17.79;99.99
13496;DHT22;6820;49.374;8.452;2022-10-16T19:25:04;17.76;99.99
13496;DHT22;6820;49.374;8.452;2022-10-16T19:29:06;17.74;99.99
13496;DHT22;6820;49.374;8.452;2022-10-16T19:33:09;17.70;99.99
13496;DHT22;6820;49.374;8.452;2022-10-16T19:37:10;17.68;99.99
13496;DHT22;6820;49.374;8.452;2022-10-16T19:41:13;17.65;99.99
13496;DHT22;6820;49.374;8.452;2022-10-16T19:45:16;17.58;99.99
13496;DHT22;6820;49.374;8.452;2022-10-16T19:49:18;17.53;99.99
13496;DHT22;6820;49.374;8.452;2022-10-16T19:53:22;17.47;99.99
13496;DHT22;6820;49.374;8.452;2022-10-16T19:57:24;17.45;99.99
13496;DHT22;6820;49.374;8.452;2022-10-16T20:01:27;17.43;99.99
13496;DHT22;6820;49.374;8.452;2022-10-16T20:05:30;17.40;99.99
13496;DHT22;6820;49.374;8.452;2022-10-16T20:09:32;17.40;99.99
13496;DHT22;6820;49.374;8.452;2022-10-16T20:13:35;17.39;99.99
13496;DHT22;6820;49.374;8.452;2022-10-16T20:17:42;17.36;99.99
13496;DHT22;6820;49.374;8.452;2022-10-16T20:21:44;17.33;99.99
13496;DHT22;6820;49.374;8.452;2022-10-16T20:25:46;17.30;99.99
13496;DHT22;6820;49.374;8.452;2022-10-16T20:29:47;17.27;99.99
13496;DHT22;6820;49.374;8.452;2022-10-16T20:33:50;17.22;99.99
13496;DHT22;6820;49.374;8.452;2022-10-16T20:37:53;17.20;99.99
13496;DHT22;6820;49.374;8.452;2022-10-16T20:41:54;17.21;99.99
13496;DHT22;6820;49.374;8.452;2022-10-16T20:45:59;17.18;99.99
13496;DHT22;6820;49.374;8.452;2022-10-16T20:50:02;17.15;99.99
13496;DHT22;6820;49.374;8.452;2022-10-16T20:54:04;17.15;99.99
13496;DHT22;6820;49.374;8.452;2022-10-16T20:58:06;17.14;99.99
13496;DHT22;6820;49.374;8.452;2022-10-16T21:02:08;17.12;99.99
13496;DHT22;6820;49.374;8.452;2022-10-16T21:06:14;17.09;99.99
13496;DHT22;6820;49.374;8.452;2022-10-16T21:10:16;17.07;99.99
13496;DHT22;6820;49.374;8.452;2022-10-16T21:14:19;17.05;99.99
13496;DHT22;6820;49.374;8.452;2022-10-16T21:18:22;17.03;99.99
13496;DHT22;6820;49.374;8.452;2022-10-16T21:22:27;17.02;99.99
13496;DHT22;6820;49.374;8.452;2022-10-16T21:26:30;16.98;99.99
13496;DHT22;6820;49.374;8.452;2022-10-16T21:30:32;16.96;99.99
13496;DHT22;6820;49.374;8.452;2022-10-16T21:34:33;16.92;99.99
13496;DHT22;6820;49.374;8.452;2022-10-16T21:38:35;16.87;99.99
13496;DHT22;6820;49.374;8.452;2022-10-16T21:42:37;16.81;99.99
13496;DHT22;6820;49.374;8.452;2022-10-16T21:46:39;16.77;99.99
13496;DHT22;6820;49.374;8.452;2022-10-16T21:50:46;16.72;99.99
13496;DHT22;6820;49.374;8.452;2022-10-16T21:54:48;16.72;99.99
13496;DHT22;6820;49.374;8.452;2022-10-16T21:58:50;16.66;99.99
13496;DHT22;6820;49.374;8.452;2022-10-16T22:02:52;16.63;99.99
13496;DHT22;6820;49.374;8.452;2022-10-16T22:06:53;16.59;99.99
13496;DHT22;6820;49.374;8.452;2022-10-16T22:11:01;16.57;99.99
13496;DHT22;6820;49.374;8.452;2022-10-16T22:15:04;16.54;99.99
13496;DHT22;6820;49.374;8.452;2022-10-16T22:19:06;16.54;99.99
13496;DHT22;6820;49.374;8.452;2022-10-16T22:23:08;16.51;99.99
13496;DHT22;6820;49.374;8.452;2022-10-16T22:27:09;16.48;99.99
13496;DHT22;6820;49.374;8.452;2022-10-16T22:31:11;16.45;99.99
13496;DHT22;6820;49.374;8.452;2022-10-16T22:35:14;16.42;99.99
13496;DHT22;6820;49.374;8.452;2022-10-16T22:39:16;16.40;99.99
13496;DHT22;6820;49.374;8.452;2022-10-16T22:43:18;16.40;99.99
13496;DHT22;6820;49.374;8.452;2022-10-16T22:47:19;16.40;99.99
13496;DHT22;6820;49.374;8.452;2022-10-16T22:51:21;16.37;99.99
13496;DHT22;6820;49.374;8.452;2022-10-16T22:55:23;16.41;99.99
13496;DHT22;6820;49.374;8.452;2022-10-16T22:59:25;16.42;99.99
13496;DHT22;6820;49.374;8.452;2022-10-16T23:03:26;16.44;99.99
13496;DHT22;6820;49.374;8.452;2022-10-16T23:07:28;16.44;99.99
13496;DHT22;6820;49.374;8.452;2022-10-16T23:11:29;16.44;99.99
13496;DHT22;6820;49.374;8.452;2022-10-16T23:15:31;16.42;99.99
13496;DHT22;6820;49.374;8.452;2022-10-16T23:19:33;16.42;99.99
13496;DHT22;6820;49.374;8.452;2022-10-16T23:23:35;16.40;99.99
13496;DHT22;6820;49.374;8.452;2022-10-16T23:27:37;16.37;99.99
13496;DHT22;6820;49.374;8.452;2022-10-16T23:31:38;16.34;99.99
13496;DHT22;6820;49.374;8.452;2022-10-16T23:35:40;16.36;99.99
13496;DHT22;6820;49.374;8.452;2022-10-16T23:39:41;16.36;99.99
13496;DHT22;6820;49.374;8.452;2022-10-16T23:43:43;16.37;99.99
13496;DHT22;6820;49.374;8.452;2022-10-16T23:47:45;16.37;99.99
13496;DHT22;6820;49.374;8.452;2022-10-16T23:51:46;16.36;99.99
13496;DHT22;6820;49.374;8.452;2022-10-16T23:55:48;16.34;99.99
13496;DHT22;6820;49.374;8.452;2022-10-16T23:59:49;16.34;99.99
